createdAt,value
2022-12-27T00:00:24.992Z,102209.56
2022-12-27T00:02:54.846Z,102212.34
2022-12-27T00:05:24.378Z,102216.18
2022-12-27T00:07:54.122Z,102209.63
2022-12-27T00:10:23.720Z,102211.81
2022-12-27T00:12:54.034Z,102212.43
2022-12-27T00:15:24.253Z,102209.24
2022-12-27T00:17:53.745Z,102209.70
2022-12-27T00:20:23.466Z,102210.91
2022-12-27T00:22:53.203Z,102207.17
2022-12-27T00:25:22.969Z,102222.86
2022-12-27T00:27:53.341Z,102224.70
2022-12-27T00:30:23.204Z,102213.31
2022-12-27T00:32:52.984Z,102221.06
2022-12-27T00:35:22.726Z,102229.15
2022-12-27T00:37:52.756Z,102235.41
2022-12-27T00:40:22.477Z,102237.34
2022-12-27T00:42:52.297Z,102236.48
2022-12-27T00:45:21.927Z,102240.05
2022-12-27T00:47:51.857Z,102227.81
2022-12-27T00:50:21.706Z,102234.77
2022-12-27T00:52:51.728Z,102239.07
2022-12-27T00:55:21.506Z,102230.98
2022-12-27T00:57:51.235Z,102236.27
2022-12-27T01:00:20.991Z,102233.45
2022-12-27T01:02:51.039Z,102235.64
2022-12-27T01:05:21.895Z,102244.20
2022-12-27T01:07:51.942Z,102256.62
2022-12-27T01:10:21.765Z,102264.56
2022-12-27T01:12:51.511Z,102255.37
2022-12-27T01:15:21.071Z,102254.03
2022-12-27T01:17:50.846Z,102251.58
2022-12-27T01:20:20.688Z,102260.89
2022-12-27T01:22:50.422Z,102259.78
2022-12-27T01:25:20.025Z,102262.98
2022-12-27T01:27:49.774Z,102270.95
2022-12-27T01:30:19.278Z,102267.63
2022-12-27T01:32:49.008Z,102273.89
2022-12-27T01:35:18.529Z,102272.64
2022-12-27T01:37:48.260Z,102273.75
2022-12-27T01:40:19.397Z,102274.48
2022-12-27T01:42:55.700Z,102270.44
2022-12-27T01:45:30.616Z,102277.44
2022-12-27T01:48:21.152Z,102271.55
2022-12-27T01:50:54.549Z,102280.97
2022-12-27T01:53:29.964Z,102277.89
2022-12-27T01:56:02.705Z,102286.52
2022-12-27T01:58:50.137Z,102290.06
2022-12-27T02:01:22.851Z,102293.51
2022-12-27T02:04:01.372Z,102313.46
2022-12-27T02:06:33.399Z,102320.22
2022-12-27T02:09:06.163Z,102314.19
2022-12-27T02:11:53.246Z,102323.02
2022-12-27T02:14:32.018Z,102328.19
2022-12-27T02:17:04.572Z,102345.71
2022-12-27T02:19:48.788Z,102357.47
2022-12-27T02:22:35.096Z,102337.31
2022-12-27T02:25:34.730Z,102334.87
2022-12-27T02:28:32.887Z,102337.48
2022-12-27T02:31:10.824Z,102332.08
2022-12-27T02:33:43.618Z,102326.78
2022-12-27T02:36:16.285Z,102334.55
2022-12-27T02:38:49.042Z,102330.50
2022-12-27T02:41:37.781Z,102341.66
2022-12-27T02:44:24.961Z,102345.84
2022-12-27T02:47:12.483Z,102334.28
2022-12-27T02:50:01.640Z,102343.27
2022-12-27T02:53:05.806Z,102351.59
2022-12-27T02:55:38.894Z,102347.31
2022-12-27T02:58:25.136Z,102342.52
2022-12-27T03:01:18.625Z,102344.59
2022-12-27T03:04:00.525Z,102334.52
2022-12-27T03:06:47.908Z,102328.85
2022-12-27T03:09:54.906Z,102318.32
2022-12-27T03:12:57.249Z,102318.32
2022-12-27T03:15:50.103Z,102324.08
2022-12-27T03:18:22.764Z,102319.30
2022-12-27T03:21:11.207Z,102324.57
2022-12-27T03:24:01.253Z,102327.59
2022-12-27T03:26:34.149Z,102326.55
2022-12-27T03:29:22.015Z,102334.91
2022-12-27T03:32:15.148Z,102340.80
2022-12-27T03:34:48.362Z,102341.77
2022-12-27T03:37:38.561Z,102348.17
2022-12-27T03:40:20.915Z,102350.73
2022-12-27T03:43:14.062Z,102359.23
2022-12-27T03:46:10.274Z,102359.45
2022-12-27T03:48:57.797Z,102353.91
2022-12-27T03:51:30.686Z,102355.91
2022-12-27T03:56:44.115Z,102359.48
2022-12-27T03:59:14.285Z,102352.47
2022-12-27T04:01:44.124Z,102356.64
2022-12-27T04:04:13.648Z,102358.72
2022-12-27T04:06:43.458Z,102355.44
2022-12-27T04:09:31.038Z,102345.37
2022-12-27T04:12:18.401Z,102355.17
2022-12-27T04:15:05.645Z,102361.57
2022-12-27T04:17:53.186Z,102360.56
2022-12-27T04:20:40.706Z,102369.52
2022-12-27T04:23:28.429Z,102369.30
2022-12-27T04:26:16.027Z,102377.15
2022-12-27T04:29:03.120Z,102372.36
2022-12-27T04:31:50.501Z,102372.73
2022-12-27T04:34:38.114Z,102372.84
2022-12-27T04:37:09.305Z,102373.46
2022-12-27T04:39:38.754Z,102383.77
2022-12-27T04:42:29.096Z,102382.91
2022-12-27T04:45:16.558Z,102386.31
2022-12-27T04:48:04.140Z,102390.86
2022-12-27T04:50:52.225Z,102385.33
2022-12-27T04:53:40.403Z,102384.48
2022-12-27T04:56:11.459Z,102385.09
2022-12-27T04:58:42.831Z,102381.61
2022-12-27T05:01:23.233Z,102357.48
2022-12-27T05:03:54.594Z,102357.48
2022-12-27T05:06:24.608Z,102385.20
2022-12-27T05:09:11.938Z,102388.16
2022-12-27T05:12:01.329Z,102385.58
2022-12-27T05:14:30.768Z,102395.79
2022-12-27T05:17:00.488Z,102390.23
2022-12-27T05:19:29.941Z,102398.24
2022-12-27T05:22:17.026Z,102394.19
2022-12-27T05:25:04.507Z,102396.00
2022-12-27T05:27:34.364Z,102396.63
2022-12-27T05:30:06.926Z,102396.63
2022-12-27T05:32:36.684Z,102405.09
2022-12-27T05:35:07.783Z,102427.45
2022-12-27T05:37:37.505Z,102414.69
2022-12-27T05:40:09.732Z,102414.41
2022-12-27T05:42:39.477Z,102414.17
2022-12-27T05:45:09.557Z,102425.09
2022-12-27T05:47:39.384Z,102426.09
2022-12-27T05:50:09.826Z,102428.66
2022-12-27T05:52:41.340Z,102434.30
2022-12-27T05:55:11.139Z,102435.28
2022-12-27T05:57:41.000Z,102435.28
2022-12-27T06:00:13.160Z,102433.94
2022-12-27T06:02:42.879Z,102439.70
2022-12-27T06:05:12.493Z,102437.63
2022-12-27T06:07:42.285Z,102438.86
2022-12-27T06:10:12.034Z,102439.34
2022-12-27T06:12:41.815Z,102440.07
2022-12-27T06:15:12.055Z,102443.27
2022-12-27T06:17:43.400Z,102442.16
2022-12-27T06:20:12.931Z,102448.64
2022-12-27T06:22:42.795Z,102442.15
2022-12-27T06:25:14.524Z,102444.85
2022-12-27T06:27:44.669Z,102443.02
2022-12-27T06:30:15.369Z,102449.01
2022-12-27T06:32:45.249Z,102451.01
2022-12-27T06:35:16.051Z,102447.42
2022-12-27T06:37:45.893Z,102451.59
2022-12-27T06:40:15.741Z,102445.84
2022-12-27T06:42:45.570Z,102454.42
2022-12-27T06:45:15.506Z,102454.42
2022-12-27T06:47:45.600Z,102446.96
2022-12-27T06:50:17.128Z,102452.44
2022-12-27T06:52:46.895Z,102455.30
2022-12-27T06:55:16.689Z,102459.34
2022-12-27T06:57:46.470Z,102459.19
2022-12-27T07:00:17.567Z,102461.02
2022-12-27T07:02:47.591Z,102463.76
2022-12-27T07:05:17.226Z,102466.57
2022-12-27T07:07:47.067Z,102469.27
2022-12-27T07:10:18.411Z,102472.72
2022-12-27T07:12:48.455Z,102478.37
2022-12-27T07:15:18.036Z,102481.80
2022-12-27T07:17:47.793Z,102487.45
2022-12-27T07:20:17.773Z,102482.52
2022-12-27T07:22:47.622Z,102482.52
2022-12-27T07:25:17.753Z,102485.48
2022-12-27T07:27:47.244Z,102494.55
2022-12-27T07:30:18.214Z,102497.00
2022-12-27T07:32:48.044Z,102497.25
2022-12-27T07:35:17.775Z,102495.25
2022-12-27T07:37:47.519Z,102502.53
2022-12-27T07:40:17.958Z,102502.80
2022-12-27T07:42:48.240Z,102507.54
2022-12-27T07:45:18.018Z,102508.53
2022-12-27T07:47:47.920Z,102511.23
2022-12-27T07:50:17.520Z,102505.73
2022-12-27T07:52:48.352Z,102517.75
2022-12-27T07:55:17.913Z,102527.33
2022-12-27T07:57:47.402Z,102527.30
2022-12-27T08:00:18.610Z,102531.13
2022-12-27T08:02:48.803Z,102531.09
2022-12-27T08:05:24.377Z,102535.23
2022-12-27T08:07:49.945Z,102537.12
2022-12-27T08:10:20.042Z,102545.91
2022-12-27T08:12:49.850Z,102536.27
2022-12-27T08:15:19.513Z,102545.05
2022-12-27T08:17:49.281Z,102546.98
2022-12-27T08:20:19.019Z,102545.05
2022-12-27T08:22:48.752Z,102545.05
2022-12-27T08:25:18.436Z,102552.46
2022-12-27T08:27:48.265Z,102552.28
2022-12-27T08:30:17.855Z,102549.86
2022-12-27T08:32:47.927Z,102552.84
2022-12-27T08:35:51.120Z,102552.37
2022-12-27T08:37:49.780Z,102562.55
2022-12-27T08:40:20.096Z,102560.92
2022-12-27T08:42:50.108Z,102554.44
2022-12-27T08:45:19.925Z,102561.07
2022-12-27T08:47:49.659Z,102563.01
2022-12-27T08:50:19.268Z,102564.61
2022-12-27T08:55:38.012Z,102557.99
2022-12-27T08:58:15.997Z,102557.61
2022-12-27T09:00:44.075Z,102552.23
2022-12-27T09:03:13.894Z,102552.73
2022-12-27T09:05:43.656Z,102554.33
2022-12-27T09:08:13.546Z,102554.22
2022-12-27T09:10:43.722Z,102548.72
2022-12-27T09:13:13.559Z,102552.02
2022-12-27T09:15:44.796Z,102542.83
2022-12-27T09:18:14.617Z,102544.27
2022-12-27T09:20:44.763Z,102547.98
2022-12-27T09:23:14.473Z,102551.91
2022-12-27T09:25:44.835Z,102553.88
2022-12-27T09:28:14.646Z,102561.00
2022-12-27T09:30:45.772Z,102566.88
2022-12-27T09:33:15.568Z,102571.79
2022-12-27T09:35:45.622Z,102571.79
2022-12-27T09:38:15.258Z,102565.05
2022-12-27T09:40:59.462Z,102570.80
2022-12-27T09:43:44.270Z,102569.59
2022-12-27T09:46:19.563Z,102569.82
2022-12-27T09:48:52.311Z,102569.09
2022-12-27T09:51:27.750Z,102569.09
2022-12-27T09:54:15.635Z,102563.83
2022-12-27T09:57:18.478Z,102583.36
2022-12-27T09:59:35.179Z,102583.36
2022-12-27T10:02:18.613Z,102580.25
2022-12-27T10:07:32.139Z,102576.81
2022-12-27T10:10:11.064Z,102589.37
2022-12-27T10:12:58.927Z,102592.01
2022-12-27T10:15:57.034Z,102583.81
2022-12-27T10:18:44.157Z,102580.06
2022-12-27T10:21:19.535Z,102584.74
2022-12-27T10:23:52.609Z,102579.53
2022-12-27T10:26:22.604Z,102574.84
2022-12-27T10:28:57.205Z,102568.44
2022-12-27T10:31:28.135Z,102572.73
2022-12-27T10:33:58.711Z,102580.11
2022-12-27T10:36:30.605Z,102575.64
2022-12-27T10:39:03.386Z,102585.62
2022-12-27T10:41:58.421Z,102585.42
2022-12-27T10:44:29.165Z,102587.90
2022-12-27T10:47:00.130Z,102579.22
2022-12-27T10:49:32.038Z,102584.97
2022-12-27T10:52:13.748Z,102585.63
2022-12-27T10:54:54.009Z,102581.27
2022-12-27T10:57:29.982Z,102581.90
2022-12-27T11:00:16.623Z,102585.46
2022-12-27T11:02:54.401Z,102578.18
2022-12-27T11:05:27.504Z,102575.33
2022-12-27T11:07:57.347Z,102576.33
2022-12-27T11:10:31.367Z,102581.14
2022-12-27T11:13:06.589Z,102579.39
2022-12-27T11:15:44.197Z,102573.84
2022-12-27T11:18:19.243Z,102575.52
2022-12-27T11:20:57.705Z,102557.45
2022-12-27T11:23:30.219Z,102564.61
2022-12-27T11:26:02.292Z,102560.89
2022-12-27T11:28:41.011Z,102560.45
2022-12-27T11:31:16.486Z,102556.66
2022-12-27T11:33:49.707Z,102556.66
2022-12-27T11:36:40.803Z,102555.22
2022-12-27T11:39:13.445Z,102558.59
2022-12-27T11:41:52.094Z,102557.64
2022-12-27T11:44:30.150Z,102556.70
2022-12-27T11:47:05.653Z,102549.88
2022-12-27T11:49:38.185Z,102547.27
2022-12-27T11:52:33.717Z,102537.02
2022-12-27T11:55:25.894Z,102546.80
2022-12-27T11:58:07.106Z,102537.39
2022-12-27T12:00:48.247Z,102532.36
2022-12-27T12:03:47.307Z,102511.27
2022-12-27T12:06:34.572Z,102511.27
2022-12-27T12:09:08.844Z,102522.13
2022-12-27T12:12:02.276Z,102510.98
2022-12-27T12:15:03.277Z,102518.84
2022-12-27T12:20:50.719Z,102513.55
2022-12-27T12:23:36.181Z,102513.04
2022-12-27T12:26:16.888Z,102510.13
2022-12-27T12:29:00.149Z,102509.23
2022-12-27T12:32:04.582Z,102511.66
2022-12-27T12:34:40.111Z,102512.19
2022-12-27T12:37:29.140Z,102499.53
2022-12-27T12:40:18.147Z,102492.45
2022-12-27T12:43:13.290Z,102489.22
2022-12-27T12:45:49.107Z,102489.62
2022-12-27T12:48:30.510Z,102491.59
2022-12-27T12:51:26.339Z,102491.62
2022-12-27T12:54:14.014Z,102488.03
2022-12-27T12:57:04.466Z,102486.00
2022-12-27T13:00:06.072Z,102474.98
2022-12-27T13:02:42.040Z,102476.78
2022-12-27T13:05:21.017Z,102467.58
2022-12-27T13:08:12.488Z,102467.42
2022-12-27T13:11:03.027Z,102464.05
2022-12-27T13:14:07.647Z,102454.52
2022-12-27T13:16:54.590Z,102456.48
2022-12-27T13:23:05.200Z,102433.06
2022-12-27T13:25:52.675Z,102434.58
2022-12-27T13:28:49.006Z,102419.20
2022-12-27T13:31:46.009Z,102423.47
2022-12-27T13:34:18.487Z,102420.93
2022-12-27T13:37:12.622Z,102415.38
2022-12-27T13:39:54.515Z,102404.13
2022-12-27T13:42:53.846Z,102390.48
2022-12-27T13:45:41.661Z,102382.92
2022-12-27T13:48:23.624Z,102384.47
2022-12-27T13:50:56.383Z,102391.27
2022-12-27T13:53:31.828Z,102381.61
2022-12-27T13:59:18.860Z,102386.92
2022-12-27T14:01:57.953Z,102379.28
2022-12-27T14:04:33.288Z,102378.85
2022-12-27T14:10:13.689Z,102360.73
2022-12-27T14:13:00.808Z,102363.45
2022-12-27T14:15:36.461Z,102372.69
2022-12-27T14:18:32.723Z,102369.16
2022-12-27T14:21:14.119Z,102367.88
2022-12-27T14:23:55.767Z,102363.49
2022-12-27T14:26:49.155Z,102358.14
2022-12-27T14:29:33.542Z,102352.58
2022-12-27T14:32:26.773Z,102349.98
2022-12-27T14:35:19.116Z,102347.51
2022-12-27T14:38:03.951Z,102336.38
2022-12-27T14:41:03.654Z,102334.36
2022-12-27T14:43:36.466Z,102341.56
2022-12-27T14:46:25.638Z,102332.92
2022-12-27T14:48:58.447Z,102327.95
2022-12-27T14:52:00.886Z,102325.02
2022-12-27T14:54:27.396Z,102331.94
2022-12-27T14:57:34.651Z,102326.86
2022-12-27T15:00:17.333Z,102321.59
2022-12-27T15:03:02.128Z,102324.77
2022-12-27T15:05:43.884Z,102327.69
2022-12-27T15:08:25.503Z,102321.78
2022-12-27T15:11:04.143Z,102310.93
2022-12-27T15:13:54.844Z,102315.12
2022-12-27T15:16:39.277Z,102310.04
2022-12-27T15:19:21.142Z,102313.30
2022-12-27T15:22:08.521Z,102302.59
2022-12-27T15:24:47.382Z,102308.40
2022-12-27T15:27:31.659Z,102314.45
2022-12-27T15:30:12.875Z,102314.80
2022-12-27T15:33:03.608Z,102309.57
2022-12-27T15:35:47.834Z,102304.44
2022-12-27T15:38:20.473Z,102317.56
2022-12-27T15:40:53.231Z,102322.44
2022-12-27T15:43:37.574Z,102316.28
2022-12-27T15:46:35.826Z,102311.16
2022-12-27T15:49:16.619Z,102315.77
2022-12-27T15:51:49.475Z,102315.08
2022-12-27T15:54:39.814Z,102312.71
2022-12-27T15:57:24.820Z,102311.90
2022-12-27T16:00:11.646Z,102311.31
2022-12-27T16:02:51.098Z,102310.93
2022-12-27T16:05:23.943Z,102303.98
2022-12-27T16:07:56.763Z,102302.86
2022-12-27T16:10:35.549Z,102299.02
2022-12-27T16:13:23.736Z,102298.02
2022-12-27T16:15:55.547Z,102291.61
2022-12-27T16:18:33.652Z,102287.65
2022-12-27T16:21:06.142Z,102292.84
2022-12-27T16:23:45.034Z,102294.95
2022-12-27T16:26:32.613Z,102287.42
2022-12-27T16:29:08.445Z,102287.59
2022-12-27T16:31:45.577Z,102286.67
2022-12-27T16:34:27.522Z,102291.64
2022-12-27T16:37:00.453Z,102287.77
2022-12-27T16:39:58.712Z,102289.94
2022-12-27T16:42:43.196Z,102290.29
2022-12-27T16:45:32.372Z,102292.57
2022-12-27T16:48:13.527Z,102293.00
2022-12-27T16:50:48.878Z,102287.65
2022-12-27T16:53:24.064Z,102291.27
2022-12-27T16:56:16.310Z,102287.59
2022-12-27T16:58:46.304Z,102283.36
2022-12-27T17:01:37.308Z,102289.78
2022-12-27T17:04:08.582Z,102289.50
2022-12-27T17:06:41.736Z,102289.08
2022-12-27T17:09:14.557Z,102289.55
2022-12-27T17:11:53.115Z,102276.91
2022-12-27T17:14:26.498Z,102281.88
2022-12-27T17:16:59.871Z,102274.13
2022-12-27T17:19:35.316Z,102268.70
2022-12-27T17:22:08.386Z,102265.23
2022-12-27T17:24:38.282Z,102252.50
2022-12-27T17:27:29.170Z,102248.50
2022-12-27T17:30:13.661Z,102241.48
2022-12-27T17:33:06.920Z,102241.48
2022-12-27T17:35:48.566Z,102245.67
2022-12-27T17:38:23.930Z,102240.66
2022-12-27T17:41:02.288Z,102235.48
2022-12-27T17:44:15.270Z,102244.30
2022-12-27T17:47:10.310Z,102237.41
2022-12-27T17:49:37.771Z,102244.95
2022-12-27T17:52:30.455Z,102238.69
2022-12-27T17:55:35.878Z,102221.98
2022-12-27T17:58:11.893Z,102223.42
2022-12-27T18:01:00.423Z,102214.69
2022-12-27T18:03:33.222Z,102218.83
2022-12-27T18:06:03.368Z,102217.58
2022-12-27T18:08:35.931Z,102217.58
2022-12-27T18:11:08.661Z,102215.06
2022-12-27T18:13:41.701Z,102219.02
2022-12-27T18:16:14.719Z,102210.72
2022-12-27T18:18:47.474Z,102213.06
2022-12-27T18:21:25.959Z,102199.06
2022-12-27T18:23:57.603Z,102204.30
2022-12-27T18:26:38.751Z,102200.88
2022-12-27T18:29:12.256Z,102200.88
2022-12-27T18:31:50.189Z,102194.59
2022-12-27T18:34:28.710Z,102191.28
2022-12-27T18:37:04.062Z,102195.70
2022-12-27T18:39:45.554Z,102190.91
2022-12-27T18:42:27.581Z,102181.23
2022-12-27T18:45:00.498Z,102179.95
2022-12-27T18:47:30.362Z,102176.88
2022-12-27T18:50:02.617Z,102178.46
2022-12-27T18:52:35.892Z,102177.77
2022-12-27T18:55:24.053Z,102162.56
2022-12-27T18:58:18.199Z,102165.06
2022-12-27T19:00:46.111Z,102166.08
2022-12-27T19:03:18.376Z,102153.32
2022-12-27T19:06:09.241Z,102154.19
2022-12-27T19:08:42.074Z,102143.61
2022-12-27T19:11:23.632Z,102136.06
2022-12-27T19:13:57.694Z,102138.30
2022-12-27T19:19:11.848Z,102126.84
2022-12-27T19:21:41.660Z,102130.34
2022-12-27T19:24:30.393Z,102133.94
2022-12-27T19:27:02.811Z,102131.78
2022-12-27T19:29:39.378Z,102120.66
2022-12-27T19:32:09.284Z,102120.16
2022-12-27T19:34:48.311Z,102112.40
2022-12-27T19:37:19.253Z,102115.89
2022-12-27T19:39:49.830Z,102118.70
2022-12-27T19:42:27.888Z,102102.73
2022-12-27T19:44:58.088Z,102102.73
2022-12-27T19:47:28.497Z,102107.26
2022-12-27T19:49:58.288Z,102104.58
2022-12-27T19:52:28.495Z,102100.64
2022-12-27T19:55:04.071Z,102095.34
2022-12-27T19:57:33.623Z,102094.31
2022-12-27T20:00:12.141Z,102089.52
2022-12-27T20:02:36.509Z,102079.12
2022-12-27T20:05:08.288Z,102079.12
2022-12-27T20:07:38.590Z,102070.95
2022-12-27T20:10:12.944Z,102074.44
2022-12-27T20:12:42.852Z,102067.85
2022-12-27T20:15:12.664Z,102067.80
2022-12-27T20:17:44.799Z,102058.77
2022-12-27T20:20:16.139Z,102061.59
2022-12-27T20:22:47.374Z,102056.42
2022-12-27T20:25:17.289Z,102053.46
2022-12-27T20:27:47.098Z,102047.86
2022-12-27T20:30:18.768Z,102048.50
2022-12-27T20:32:48.894Z,102038.83
2022-12-27T20:35:18.801Z,102038.83
2022-12-27T20:37:48.885Z,102033.81
2022-12-27T20:40:18.812Z,102032.17
2022-12-27T20:42:48.918Z,102031.95
2022-12-27T20:45:18.588Z,102021.92
2022-12-27T20:47:48.927Z,102018.37
2022-12-27T20:50:18.806Z,102022.58
2022-12-27T20:52:48.576Z,102021.14
2022-12-27T20:55:18.407Z,102022.28
2022-12-27T20:57:48.214Z,102019.86
2022-12-27T21:00:18.194Z,102009.09
2022-12-27T21:02:48.542Z,102017.78
2022-12-27T21:05:19.297Z,102022.70
2022-12-27T21:07:49.004Z,102013.09
2022-12-27T21:10:18.748Z,102012.50
2022-12-27T21:12:48.198Z,102005.19
2022-12-27T21:15:17.878Z,101996.70
2022-12-27T21:17:47.634Z,102000.91
2022-12-27T21:20:17.285Z,101999.06
2022-12-27T21:22:47.068Z,101986.65
2022-12-27T21:25:16.824Z,101985.09
2022-12-27T21:27:48.489Z,101983.16
2022-12-27T21:30:18.269Z,101989.23
2022-12-27T21:32:48.991Z,101988.55
2022-12-27T21:35:18.618Z,101990.09
2022-12-27T21:37:48.699Z,101980.88
2022-12-27T21:40:19.222Z,101979.81
2022-12-27T21:42:50.210Z,101966.22
2022-12-27T21:45:19.724Z,101964.52
2022-12-27T21:47:49.816Z,101953.22
2022-12-27T21:50:19.383Z,101956.02
2022-12-27T21:52:49.092Z,101948.13
2022-12-27T21:55:18.842Z,101940.27
2022-12-27T21:57:48.583Z,101940.27
2022-12-27T22:00:18.303Z,101927.81
2022-12-27T22:02:49.989Z,101927.81
2022-12-27T22:05:19.762Z,101918.20
2022-12-27T22:07:49.777Z,101919.06
2022-12-27T22:10:19.849Z,101914.45
2022-12-27T22:12:49.557Z,101910.81
2022-12-27T22:15:19.057Z,101913.22
2022-12-27T22:17:48.817Z,101905.59
2022-12-27T22:20:18.680Z,101902.88
2022-12-27T22:22:48.487Z,101893.42
2022-12-27T22:25:18.278Z,101892.88
2022-12-27T22:27:48.069Z,101884.69
2022-12-27T22:30:17.940Z,101887.08
2022-12-27T22:32:47.694Z,101880.03
2022-12-27T22:35:17.672Z,101872.78
2022-12-27T22:37:47.184Z,101865.82
2022-12-27T22:40:30.992Z,101864.93
2022-12-27T22:42:48.512Z,101849.38
2022-12-27T22:45:17.993Z,101850.13
2022-12-27T22:47:47.832Z,101854.32
2022-12-27T22:50:17.596Z,101848.14
2022-12-27T22:52:48.609Z,101845.66
2022-12-27T22:55:18.659Z,101843.48
2022-12-27T22:57:48.734Z,101824.17
2022-12-27T23:00:18.281Z,101826.95
2022-12-27T23:02:48.287Z,101810.88
2022-12-27T23:05:18.113Z,101811.20
2022-12-27T23:08:06.271Z,101810.03
2022-12-27T23:10:19.126Z,101804.95
2022-12-27T23:12:48.924Z,101804.77
2022-12-27T23:15:18.561Z,101803.02
2022-12-27T23:17:48.602Z,101805.14
2022-12-27T23:20:18.500Z,101805.14
2022-12-27T23:22:48.228Z,101799.37
2022-12-27T23:25:17.731Z,101805.72
2022-12-27T23:27:47.232Z,101798.00
2022-12-27T23:30:17.150Z,101796.31
2022-12-27T23:32:46.941Z,101780.45
2022-12-27T23:35:16.764Z,101780.56
2022-12-27T23:37:46.892Z,101770.91
2022-12-27T23:40:16.748Z,101766.92
2022-12-27T23:42:46.243Z,101753.91
2022-12-27T23:45:16.110Z,101747.37
2022-12-27T23:47:45.861Z,101734.59
2022-12-27T23:50:20.834Z,101739.41
2022-12-27T23:52:47.001Z,101733.70
2022-12-27T23:55:16.810Z,101729.75
2022-12-27T23:57:46.546Z,101728.48
